Latest Coastal Weather Observations for Truscott

IDW60701

Issued at 9:43 pm WST Monday 4 May 2026 (issued every 10 minutes, with the page automatically refreshed every 10 minutes)

About coastal observations | Map of coastal stations | Coastal observations for WA | Marine services | Other Formats
Station Details ID: 001020 Name: TRUSCOTT Lat: -14.09 Lon: 126.39 Height: 51.0 m
Data from the previous 72 hours. | See also: Recent months at Truscott
Date/Time
WST
Wind Sea
Height
m
Swell Vis
km
Cloud Weather Temp
°C
Press
MSL
hPa
Rain since
9am
mm
Dir  Spd
kts
Gust
kts
Height
m
Period
s
Dir
04/09:30pm CALM 0 0 - - - - 10 Partly cloudy - 25.9 1012.5 0.0
04/09:00pm CALM 0 0 - - - - 10 Mostly clear - 25.9 1012.4 0.0
04/08:30pm CALM 0 0 - - - - 10 Partly cloudy - 25.7 1012.4 0.0
04/08:00pm CALM 0 0 - - - - 10 - - 26.1 1012.6 0.0
04/07:30pm CALM 0 0 - - - - 10 - - 26.2 1012.2 0.0
04/07:00pm NE 1 3 - - - - 10 - - 26.4 1011.9 0.0
04/06:30pm WNW 1 3 - - - - 10 - - 26.8 1011.5 0.0
04/06:00pm WNW 3 5 - - - - 10 - - 28.5 1011.1 0.0
04/05:30pm NW 4 5 - - - - 10 - - 29.3 1010.8 0.0
04/05:00pm NNW 4 5 - - - - 10 - - 30.1 1010.5 0.0
04/04:30pm NNW 6 9 - - - - 10 - - 30.9 1010.1 0.0
04/04:00pm NNW 6 8 - - - - 10 - - 31.6 1009.7 0.0
04/03:30pm NNW 6 9 - - - - 10 - - 32.1 1009.4 0.0
04/03:00pm NW 6 8 - - - - 10 - - 32.9 1009.1 0.0
04/02:30pm NNW 6 8 - - - - 10 Partly cloudy - 33.1 1009.1 0.0
04/02:00pm WNW 6 9 - - - - 10 Partly cloudy - 32.9 1009.3 0.0
04/01:30pm WNW 5 7 - - - - 10 Partly cloudy - 33.1 1009.6 0.0
04/01:00pm WNW 9 13 - - - - 10 Partly cloudy - 32.5 1010.0 0.0
04/12:30pm W 7 10 - - - - 10 Partly cloudy - 32.2 1010.1 0.0
04/12:00pm W 8 11 - - - - 10 Mostly clear - 32.8 1010.2 0.0
04/11:30am W 7 10 - - - - 10 Mostly clear - 32.7 1011.1 0.0
04/11:00am W 7 10 - - - - 10 - - 32.2 1011.6 0.0
04/10:30am SSW 5 9 - - - - 10 - - 31.8 1012.2 0.0
04/10:00am WSW 6 10 - - - - 10 - - 31.5 1012.6 0.0
04/09:30am SW 7 10 - - - - 10 - - 30.9 1012.8 0.0
04/09:00am SW 7 11 - - - - 10 - - 29.8 1012.7 0.0
04/08:30am SW 7 10 - - - - 10 - - 29.3 1012.7 0.0
04/08:00am SW 6 9 - - - - 10 - - 28.6 1012.6 0.0
04/07:30am SW 5 6 - - - - 10 - - 27.2 1012.4 0.0
04/07:00am SSW 4 5 - - - - 10 - - 26.3 1012.1 0.0
04/06:30am S 3 3 - - - - 10 - - 24.5 1011.8 0.0
04/06:00am SW 1 4 - - - - 10 - - 23.2 1011.5 0.0
04/05:30am SW 1 3 - - - - 10 - - 23.6 1011.1 0.0
04/05:00am CALM 0 3 - - - - 10 - - 23.6 1010.9 0.0
04/04:30am CALM 0 0 - - - - 10 - - 23.6 1010.9 0.0
04/04:00am CALM 0 0 - - - - 10 - - 23.7 1010.9 0.0
04/03:30am CALM 0 0 - - - - 10 - - 23.6 1011.1 0.0
04/03:00am CALM 0 0 - - - - 10 - - 23.8 1011.2 0.0
04/02:30am CALM 0 0 - - - - 10 - - 24.0 1011.3 0.0
04/02:00am CALM 0 0 - - - - 10 - - 24.1 1011.5 0.0
04/01:30am CALM 0 0 - - - - 10 - - 24.1 1011.6 0.0
04/01:00am CALM 0 0 - - - - 10 - - 24.3 1011.8 0.0
04/12:30am CALM 0 0 - - - - 10 - - 24.2 1012.1 0.0
04/12:00am CALM 0 0 - - - - 10 - - 24.3 1012.4 0.0
 
Date/Time
WST
Wind Sea
Height
m
Swell Vis
km
Cloud Weather Temp
°C
Press
MSL
hPa
Rain since
9am
mm
Dir  Spd
kts
Gust
kts
Height
m
Period
s
Dir
03/11:30pm CALM 0 0 - - - - 10 - - 24.5 1012.5 0.0
03/11:00pm CALM 0 0 - - - - 10 - - 24.7 1012.5 0.0
03/10:30pm SW 2 3 - - - - 10 - - 24.9 1012.7 0.0
03/10:00pm CALM 0 0 - - - - 10 - - 25.2 1012.7 0.0
03/09:30pm CALM 0 0 - - - - 10 - - 25.2 1012.7 0.0
03/09:00pm CALM 0 1 - - - - 10 - - 25.5 1012.6 0.0
03/08:30pm CALM 0 0 - - - - - - - 25.7 1012.6 0.0
03/08:00pm NW 3 4 - - - - - - - 26.1 1012.3 0.0
03/07:30pm W 3 4 - - - - - Partly cloudy - 27.0 1012.2 0.0
03/07:00pm NNW 2 4 - - - - 10 Mostly clear - 26.6 1011.8 0.0
03/06:30pm NNW 2 4 - - - - 10 Partly cloudy - 27.1 1011.3 0.0
03/06:00pm N 3 5 - - - - 10 Partly cloudy - 27.1 1010.8 0.0
03/05:30pm N 3 5 - - - - 10 - - 27.5 1010.5 0.0
03/05:00pm N 5 7 - - - - 10 - - 28.3 1010.2 0.0
03/04:30pm NNW 6 9 - - - - 10 - - 28.9 1009.8 0.0
03/04:00pm NNW 7 10 - - - - 10 - - 29.4 1009.7 0.0
03/03:30pm N 7 11 - - - - 10 - - 30.0 1009.5 0.0
03/03:00pm N 7 13 - - - - 10 - - 30.4 1009.5 0.0
03/02:30pm NNW 8 13 - - - - 10 - - 30.5 1009.7 0.0
03/02:00pm NNW 8 12 - - - - 10 Mostly clear - 30.9 1009.7 0.0
03/01:30pm NNW 9 13 - - - - 10 - - 31.3 1010.0 0.0
03/01:00pm NNW 7 11 - - - - 10 Mostly clear - 31.5 1010.3 0.0
03/12:30pm NNW 8 11 - - - - 10 Partly cloudy - 31.6 1010.6 0.0
03/12:00pm N 6 9 - - - - 10 Mostly clear - 31.7 1011.0 0.0
03/11:30am NNW 6 9 - - - - 10 Partly cloudy - 30.7 1011.6 0.0
03/11:00am WNW 6 8 - - - - 10 Mostly clear - 31.5 1011.8 0.0
03/10:38am ESE 6 9 - - - - 10 - - 31.7 1012.0 0.0
03/10:30am N 3 9 - - - - 10 - - 31.9 1012.1 0.0
03/10:19am SW 4 6 - - - - 4 Mostly clear - 31.4 1012.3 0.0
03/10:00am SSE 4 6 - - - - 10 - - 31.3 1012.5 0.0
03/09:30am SW 4 6 - - - - 10 - - 30.6 1012.7 0.0
03/09:00am SW 4 6 - - - - 10 - - 29.9 1012.9 0.0
03/08:30am SSW 5 7 - - - - 10 - - 29.2 1012.8 0.0
03/08:06am SSW 6 8 - - - - 10 - - 28.5 1012.6 0.0
03/08:00am SSW 6 9 - - - - 10 - - 28.3 1012.5 0.0
03/07:47am SSW 6 9 - - - - 5 - - 28.1 1012.4 0.0
03/07:30am SSW 5 7 - - - - 10 - - 27.4 1012.4 0.0
03/07:00am SSW 6 8 - - - - 10 - - 26.6 1012.0 0.0
03/06:30am SSW 5 6 - - - - 10 - - 25.7 1011.7 0.0
03/06:00am SSW 4 5 - - - - 10 - - 24.8 1011.3 0.0
03/05:30am S 3 5 - - - - 10 - - 24.0 1011.0 0.0
03/05:00am SSW 3 5 - - - - 10 Mostly clear - 24.3 1010.7 0.0
03/04:30am SSW 4 6 - - - - 10 Partly cloudy - 25.0 1010.5 0.0
03/04:00am SSW 4 5 - - - - 10 Partly cloudy - 24.9 1010.5 0.0
03/03:30am SSW 4 6 - - - - 10 - - 24.9 1010.1 0.0
03/03:00am SSW 4 5 - - - - 10 Partly cloudy - 24.8 1010.2 0.0
03/02:30am SSW 3 4 - - - - 10 - - 24.1 1010.2 0.0
03/02:00am SSW 3 4 - - - - 10 - - 24.2 1010.1 0.0
03/01:30am SSW 3 3 - - - - 10 - - 24.2 1010.5 0.0
03/01:00am SSW 3 4 - - - - 10 - - 24.4 1010.7 0.0
03/12:30am CALM 0 0 - - - - 10 - - 24.5 1010.8 0.0
03/12:00am SSW 3 4 - - - - 10 - - 24.9 1011.3 0.0
 
Date/Time
WST
Wind Sea
Height
m
Swell Vis
km
Cloud Weather Temp
°C
Press
MSL
hPa
Rain since
9am
mm
Dir  Spd
kts
Gust
kts
Height
m
Period
s
Dir
02/11:30pm NE 3 4 - - - - 10 - - 24.4 1011.5 0.0
02/11:00pm CALM 0 0 - - - - 10 - - 24.2 1011.4 0.0
02/10:30pm CALM 0 0 - - - - 10 - - 24.5 1011.3 0.0
02/10:00pm NE 3 4 - - - - 10 - - 24.4 1011.3 0.0
02/09:30pm CALM 0 0 - - - - 10 - - 24.6 1011.4 0.0
02/09:00pm CALM 0 0 - - - - 10 - - 24.8 1011.4 0.0
02/08:30pm NE 3 4 - - - - 10 - - 25.3 1011.3 0.0
02/08:00pm NE 3 4 - - - - 10 - - 25.8 1011.2 0.0
02/07:30pm NE 4 5 - - - - 10 - - 26.2 1010.8 0.0
02/07:00pm NE 4 5 - - - - 10 - - 26.7 1010.5 0.0
02/06:30pm NNE 4 5 - - - - 10 - - 26.8 1010.0 0.0
02/06:00pm N 4 6 - - - - 10 - - 27.1 1009.5 0.0
02/05:30pm NNE 5 8 - - - - 10 - - 27.5 1009.4 0.0
02/05:00pm NNE 6 11 - - - - 10 - - 28.2 1009.2 0.0
02/04:30pm NNE 7 11 - - - - 10 - - 28.9 1008.9 0.0
02/04:00pm N 7 11 - - - - 10 - - 29.5 1008.6 0.0
02/03:30pm NNE 8 13 - - - - 10 - - 29.9 1008.5 0.0
02/03:00pm N 8 12 - - - - 10 - - 30.1 1008.5 0.0
02/02:30pm NNW 8 15 - - - - 10 - - 30.7 1008.6 0.0
02/02:00pm N 8 12 - - - - 10 - - 31.4 1008.6 0.0
02/01:30pm N 6 13 - - - - 10 - - 32.4 1008.7 0.0
02/01:00pm ENE 6 10 - - - - 10 - - 32.8 1008.9 0.0
02/12:30pm ENE 7 11 - - - - 10 - - 32.7 1009.3 0.0
02/12:00pm ENE 8 13 - - - - 10 - - 32.3 1009.8 0.0
02/11:30am ENE 8 12 - - - - 10 - - 32.3 1010.2 0.0
02/11:00am E 7 12 - - - - 10 - - 32.2 1010.6 0.0
02/10:30am E 8 13 - - - - 10 - - 31.9 1011.1 0.0
02/10:00am ESE 5 8 - - - - 10 - - 32.1 1011.4 0.0
02/09:30am SE 5 7 - - - - 10 - - 30.7 1011.9 0.0
02/09:00am SE 5 7 - - - - 10 - - 30.0 1011.9 0.0
02/08:30am S 2 4 - - - - 10 - - 29.7 1011.9 0.0
02/08:00am S 3 5 - - - - 10 - - 28.8 1011.7 0.0
02/07:30am SSE 4 5 - - - - 10 - - 28.2 1011.4 0.0
02/07:00am SSW 2 4 - - - - 10 - - 26.8 1011.3 0.0
02/06:30am SSW 2 4 - - - - 10 - - 24.5 1011.1 0.0
02/06:00am CALM 0 0 - - - - 10 - - 22.3 1010.9 0.0
02/05:30am SSW 3 5 - - - - 10 - - 22.0 1010.7 0.0
02/05:00am S 1 3 - - - - 10 - - 22.2 1010.6 0.0
02/04:30am S 3 5 - - - - 10 - - 22.7 1010.4 0.0
02/04:00am SSW 4 5 - - - - 10 - - 22.4 1010.1 0.0
02/03:30am S 3 4 - - - - 10 - - 22.6 1010.0 0.0
02/03:00am S 3 4 - - - - 10 - - 22.9 1010.0 0.0
02/02:30am SSW 3 5 - - - - 10 - - 22.8 1010.2 0.0
02/02:00am SSW 3 4 - - - - 10 - - 22.6 1010.2 0.0
02/01:30am SSW 3 4 - - - - 10 - - 22.4 1010.3 0.0
02/01:00am SSW 3 4 - - - - 10 - - 23.2 1010.6 0.0
02/12:30am E 1 3 - - - - 10 - - 22.4 1010.9 0.0
02/12:00am CALM 0 0 - - - - 10 - - 22.5 1011.0 0.0
 
Date/Time
WST
Wind Sea
Height
m
Swell Vis
km
Cloud Weather Temp
°C
Press
MSL
hPa
Rain since
9am
mm
Dir  Spd
kts
Gust
kts
Height
m
Period
s
Dir
01/11:30pm E 2 3 - - - - 10 - - 22.8 1011.3 0.0
01/11:00pm CALM 0 0 - - - - 10 - - 22.9 1011.6 0.0
01/10:30pm CALM 0 0 - - - - 10 - - 23.0 1011.6 0.0
01/10:00pm E 3 4 - - - - 10 - - 23.5 1011.8 0.0

Other formats

Comma delimited format used in spreadsheet applications
http://www.bom.gov.au/fwo/IDW60701/IDW60701.95101.axf

JavaScript Object Notation format (JSON) in row-major order
http://www.bom.gov.au/fwo/IDW60701/IDW60701.95101.json

Data quality

Most of these data are generated automatically and are frequently updated. Quality checks on data are not normally performed. It is possible for incorrect values to appear. Refer to information at About Latest Weather Observations and please check the disclaimer before using these data.